Strona główna
METAR-TAF:

METAR-TAF

Lotnisko :

Port lotniczy Debreczyn

Debreczyn, Węgry

Szerokość geograficzna: 47-29N, Długość geograficzna: 021-36E, wysokość: 108 m

Aktualna obserwacja pogody

Raport powstał 59 minut temu, godzina 12:15 UTC
Wiatr 1 kt z kierunków zmiennych
Temperatura 3°C
Wilgotność 81%
Ciśnienie 1027 hPa
Widzialność: 8000 m
Zachmurzenie całkowite na wysokości 2200 ft

METAR: LHDC 301215Z AUTO VRB01KT 8000 OVC022 03/M00 Q1027 NOSIG

czas: 14:14 (13:14 UTC)

Prognoza

Raport powstał 1 godzina i 59 minut temu, godzina 11:15 UTC
Prognoza ważna od 30 godzina 12 UTC do 30 godzina 21 UTC
Wiatr 3 kt z kierunków zmiennych
Widzialność: 8000 m
Przerywane chmury na wysokości 1500 ft
Stopniowe zmiany
od 30 godzina 14 UTC do 30 godzina 17 UTC
Widzialność: 4000 m
zamglenie
Stopniowe zmiany
od 30 godzina 18 UTC do 30 godzina 21 UTC
Widzialność: 0500 m
na wysokości 200 ft
marznąca mgła

TAF: LHDC 301115Z 3012/3021 VRB03KT 8000 BKN015 BECMG 3014/3017 4000 BR BECMG 3018/3021 0500 FZFG VV002

Obserwacja i prognoza pogody dla ponad 4000 lotnisk (raport METAR i TAF).

Dostępne stacje oznaczono żółtymi i czerwonymi punktami na mapie.

Najedź kursorem aby zobaczyć nazwę stacji.

Kliknij aby zobaczyć obserwacje i prognozy pogody.

Aby zmienić mapę: kliknij na zielony przycisk z czarnym krzyżykiem, aby powiększyć; na zielony przycisk z myślnikiem, aby pomniejszyć; na zielone strzałki, aby przejść do map sąsiednich.


METAR-TAF: